Time;durP1;ratioP1;P1;durP2;ratioP2;P2;SDS_P1;SDS_P2;PMS_P1;PMS_P2;Temp;Humidity;BMP_temperature;BMP_pressure;BME280_temperature;BME280_humidity;BME280_pressure;Samples;Min_cycle;Max_cycle;Signal;HPM_P1;HPM_P2
2021/11/10 00:00:00;;;;;;;48.20;26.83;;;6.80;99.90;;;;;;5042528;28;20034;-78
2021/11/10 00:02:26;;;;;;;57.00;26.45;;;6.70;99.90;;;;;;5035034;28;20036;-78
2021/11/10 00:04:51;;;;;;;46.72;26.38;;;6.70;99.90;;;;;;5035093;28;20033;-78
2021/11/10 00:07:17;;;;;;;49.28;25.58;;;6.70;99.90;;;;;;5034649;28;20018;-78
2021/11/10 00:09:43;;;;;;;43.08;25.15;;;6.60;99.90;;;;;;5037662;28;20065;-78
2021/11/10 00:12:09;;;;;;;44.42;25.58;;;6.60;99.90;;;;;;5054513;28;20079;-78
2021/11/10 00:14:34;;;;;;;43.38;25.35;;;6.60;99.90;;;;;;5052052;28;20469;-78
2021/11/10 00:17:01;;;;;;;39.30;23.90;;;6.60;99.90;;;;;;5034952;28;20022;-78
2021/11/10 00:19:27;;;;;;;42.47;24.77;;;6.60;99.90;;;;;;5034348;28;20036;-78
2021/11/10 00:21:52;;;;;;;44.35;24.52;;;6.60;99.90;;;;;;5053488;28;20025;-78
2021/11/10 00:24:18;;;;;;;41.58;23.88;;;6.60;99.90;;;;;;5054746;28;20151;-78
2021/11/10 00:26:44;;;;;;;42.78;23.67;;;6.60;99.90;;;;;;5054512;28;20017;-78
2021/11/10 00:29:10;;;;;;;51.10;25.05;;;6.60;99.90;;;;;;5059707;28;20483;-78
2021/11/10 00:31:36;;;;;;;43.35;22.17;;;6.60;99.90;;;;;;5057328;28;20527;-78
2021/11/10 00:34:01;;;;;;;44.38;22.58;;;6.50;99.90;;;;;;5053949;28;20051;-78
2021/11/10 00:36:27;;;;;;;36.65;21.40;;;6.50;99.90;;;;;;5053219;28;20063;-78
2021/11/10 00:38:52;;;;;;;41.65;21.17;;;6.50;99.90;;;;;;5047023;28;20446;-78
2021/11/10 00:41:18;;;;;;;47.15;22.08;;;6.50;99.90;;;;;;5034093;28;20389;-78
2021/11/10 00:43:45;;;;;;;37.88;18.88;;;6.50;99.90;;;;;;5034091;28;20537;-78
2021/11/10 00:46:10;;;;;;;38.15;19.27;;;6.50;99.90;;;;;;5034371;28;20049;-78
2021/11/10 00:48:37;;;;;;;44.13;20.60;;;6.40;99.90;;;;;;5033829;28;20064;-78
2021/11/10 00:51:03;;;;;;;35.55;21.17;;;6.50;99.90;;;;;;5045656;28;20025;-78
2021/11/10 00:53:29;;;;;;;42.13;21.58;;;6.50;99.90;;;;;;5053593;28;20111;-78
2021/11/10 00:55:54;;;;;;;44.55;23.63;;;6.40;99.90;;;;;;5053615;28;20508;-77
2021/11/10 00:58:20;;;;;;;36.83;20.90;;;6.40;99.90;;;;;;5053826;28;20029;-78
2021/11/10 01:00:46;;;;;;;47.40;24.80;;;6.40;99.90;;;;;;5054135;28;20547;-78
2021/11/10 01:03:12;;;;;;;42.55;22.23;;;6.40;99.90;;;;;;5053579;28;20025;-78
2021/11/10 01:05:39;;;;;;;41.90;22.40;;;6.40;99.90;;;;;;5053860;28;20017;-78
2021/11/10 01:08:06;;;;;;;38.63;21.77;;;6.40;99.90;;;;;;5053843;28;20025;-78
2021/11/10 01:10:33;;;;;;;35.30;20.67;;;6.30;99.90;;;;;;5033729;28;20047;-78
2021/11/10 01:12:59;;;;;;;33.45;20.45;;;6.30;99.90;;;;;;5049311;28;20090;-78
2021/11/10 01:15:25;;;;;;;41.28;21.30;;;6.30;99.90;;;;;;5044489;28;20424;-78
2021/11/10 01:17:51;;;;;;;39.00;21.67;;;6.30;99.90;;;;;;5033727;28;20026;-78
2021/11/10 01:20:17;;;;;;;38.47;20.40;;;6.20;99.90;;;;;;5038634;28;20477;-78
2021/11/10 01:22:43;;;;;;;31.63;19.20;;;6.20;99.90;;;;;;5053381;28;20377;-78
2021/11/10 01:25:11;;;;;;;40.75;19.63;;;6.20;99.90;;;;;;5053125;28;20025;-77
2021/11/10 01:27:37;;;;;;;39.15;19.38;;;6.20;99.90;;;;;;5051675;28;20114;-77
2021/11/10 01:30:06;;;;;;;37.97;19.58;;;6.20;99.90;;;;;;5053378;28;20539;-78
2021/11/10 01:32:32;;;;;;;32.55;19.92;;;6.20;99.90;;;;;;5040250;28;20079;-78
2021/11/10 01:34:58;;;;;;;33.53;18.70;;;6.20;99.90;;;;;;5050383;28;20485;-77
2021/11/10 01:37:23;;;;;;;34.45;19.70;;;6.10;99.90;;;;;;5053563;28;20028;-78
2021/11/10 01:39:49;;;;;;;35.65;19.70;;;6.10;99.90;;;;;;5042251;28;20075;-77
2021/11/10 01:42:15;;;;;;;34.50;19.90;;;6.10;99.90;;;;;;5048696;28;20033;-77
2021/11/10 01:44:41;;;;;;;34.05;20.48;;;6.10;99.90;;;;;;5051982;28;20082;-78
2021/11/10 01:47:10;;;;;;;40.90;20.95;;;6.10;99.90;;;;;;5052597;28;20039;-79
2021/11/10 01:49:37;;;;;;;29.70;17.90;;;6.10;99.90;;;;;;5053177;28;20017;-78
2021/11/10 01:52:04;;;;;;;34.08;18.45;;;6.00;99.90;;;;;;5033390;28;20068;-78
2021/11/10 01:54:32;;;;;;;39.65;18.58;;;6.00;99.90;;;;;;5039130;28;20036;-78
2021/11/10 01:57:00;;;;;;;35.30;17.17;;;6.00;99.90;;;;;;5052760;28;20051;-78
2021/11/10 01:59:36;;;;;;;37.58;17.63;;;6.00;99.90;;;;;;5041698;28;20065;-79
2021/11/10 02:02:09;;;;;;;34.72;16.63;;;6.00;99.90;;;;;;5039543;28;20472;-78
2021/11/10 02:04:35;;;;;;;;;;;5.90;99.90;;;;;;5034771;28;20520;-79
2021/11/10 02:07:02;;;;;;;30.65;15.95;;;5.90;99.90;;;;;;5033217;28;19911;-79
2021/11/10 02:09:29;;;;;;;29.65;17.10;;;6.00;99.90;;;;;;5032516;28;20041;-78
2021/11/10 02:11:56;;;;;;;29.33;16.38;;;6.00;99.90;;;;;;5033094;28;20029;-79
2021/11/10 02:14:25;;;;;;;34.00;18.23;;;6.00;99.90;;;;;;5032810;28;20048;-78
2021/11/10 02:16:52;;;;;;;24.00;14.73;;;5.90;99.90;;;;;;5031823;28;20018;-78
2021/11/10 02:19:19;;;;;;;24.30;14.77;;;5.90;99.90;;;;;;5032762;28;20535;-79
2021/11/10 02:21:50;;;;;;;31.33;16.90;;;5.90;99.90;;;;;;5033003;28;20104;-79
2021/11/10 02:24:17;;;;;;;32.25;17.83;;;5.90;99.90;;;;;;5044910;28;20500;-79
2021/11/10 02:26:45;;;;;;;33.75;17.92;;;6.00;99.90;;;;;;5052762;28;20033;-78
2021/11/10 02:29:16;;;;;;;34.35;17.17;;;5.90;99.90;;;;;;5051599;28;20490;-79
2021/11/10 02:31:44;;;;;;;31.67;17.15;;;5.80;99.90;;;;;;5052470;28;20048;-79
2021/11/10 02:34:10;;;;;;;30.25;17.73;;;5.80;99.90;;;;;;5047766;28;20444;-78
2021/11/10 02:36:36;;;;;;;32.17;15.75;;;5.70;99.90;;;;;;5032580;28;20021;-79
2021/11/10 02:39:12;;;;;;;26.60;15.77;;;5.70;99.90;;;;;;5031573;28;20063;-79
2021/11/10 02:41:39;;;;;;;32.50;17.27;;;5.70;99.90;;;;;;5042521;28;20017;-80
2021/11/10 02:44:06;;;;;;;34.88;19.33;;;5.70;99.90;;;;;;5052796;28;20021;-79
2021/11/10 02:46:36;;;;;;;35.05;17.63;;;5.80;99.90;;;;;;5052486;28;20531;-79
2021/11/10 02:49:04;;;;;;;33.10;18.23;;;5.80;99.90;;;;;;5050598;28;20029;-79
2021/11/10 02:51:30;;;;;;;30.48;19.40;;;5.70;99.90;;;;;;5052281;28;20052;-79
2021/11/10 02:53:56;;;;;;;29.98;18.75;;;5.70;99.90;;;;;;5054109;28;20037;-79
2021/11/10 02:56:22;;;;;;;29.58;16.08;;;5.80;99.90;;;;;;5058478;28;20074;-79
2021/11/10 02:58:48;;;;;;;24.25;14.93;;;5.60;99.90;;;;;;5054774;28;20041;-79
2021/11/10 03:01:15;;;;;;;33.95;16.83;;;5.60;99.90;;;;;;5052166;28;20095;-79
2021/11/10 03:03:40;;;;;;;26.63;15.60;;;5.60;99.90;;;;;;5052625;28;20021;-79
2021/11/10 03:06:06;;;;;;;29.63;16.90;;;5.70;99.90;;;;;;5052032;28;20028;-79
2021/11/10 03:08:32;;;;;;;30.60;16.95;;;5.60;99.90;;;;;;5052455;28;20481;-79
2021/11/10 03:10:58;;;;;;;37.20;19.02;;;5.60;99.90;;;;;;5051986;28;20374;-79
2021/11/10 03:13:23;;;;;;;34.42;17.85;;;5.60;99.90;;;;;;5051590;28;20493;-79
2021/11/10 03:15:49;;;;;;;27.92;15.95;;;5.60;99.90;;;;;;5055014;28;20381;-79
2021/11/10 03:18:15;;;;;;;30.70;16.25;;;5.60;99.90;;;;;;5055332;28;20021;-79
2021/11/10 03:20:41;;;;;;;24.10;15.50;;;5.60;99.90;;;;;;5055235;28;20021;-79
2021/11/10 03:23:07;;;;;;;26.83;16.60;;;5.60;99.90;;;;;;5055847;28;20060;-78
2021/11/10 03:25:34;;;;;;;26.33;15.82;;;5.60;99.90;;;;;;5055614;28;20056;-79
2021/11/10 03:28:00;;;;;;;27.65;16.13;;;5.60;99.90;;;;;;5056117;28;20025;-79
2021/11/10 03:30:26;;;;;;;29.65;14.80;;;5.60;99.90;;;;;;5036036;28;20052;-79
2021/11/10 03:32:52;;;;;;;30.40;13.93;;;5.60;99.90;;;;;;5035886;28;20103;-79
2021/11/10 03:35:19;;;;;;;27.33;14.98;;;5.60;99.90;;;;;;5035450;28;20040;-79
2021/11/10 03:37:45;;;;;;;26.25;14.13;;;5.60;99.90;;;;;;5034340;28;20028;-79
2021/11/10 03:40:12;;;;;;;23.55;15.00;;;5.50;99.90;;;;;;5035778;28;20071;-79
2021/11/10 03:42:37;;;;;;;30.63;16.20;;;5.60;99.90;;;;;;5048017;28;20033;-79
2021/11/10 03:45:04;;;;;;;25.67;14.93;;;5.50;99.90;;;;;;5052857;28;20115;-79
2021/11/10 03:47:30;;;;;;;23.27;13.55;;;5.50;99.90;;;;;;5055428;28;20540;-79
2021/11/10 03:49:56;;;;;;;25.85;14.60;;;5.40;99.90;;;;;;5053640;28;20104;-79
2021/11/10 03:52:22;;;;;;;31.10;14.88;;;5.40;99.90;;;;;;5054975;28;20163;-79
2021/11/10 03:54:48;;;;;;;24.27;13.60;;;5.40;99.90;;;;;;5053937;28;20041;-79
2021/11/10 03:57:14;;;;;;;24.15;13.38;;;5.30;99.90;;;;;;5054582;28;20036;-79
2021/11/10 03:59:40;;;;;;;23.10;14.00;;;5.40;99.90;;;;;;5054749;28;20060;-80
2021/11/10 04:02:10;;;;;;;28.45;14.23;;;5.40;99.90;;;;;;5055172;28;20453;-79
2021/11/10 04:04:36;;;;;;;21.70;12.63;;;5.40;99.90;;;;;;5049512;28;20036;-79
2021/11/10 04:07:02;;;;;;;24.90;13.68;;;5.40;99.90;;;;;;5035028;28;20033;-79
2021/11/10 04:09:28;;;;;;;25.17;14.05;;;5.40;99.90;;;;;;5035206;28;20030;-79
2021/11/10 04:11:53;;;;;;;25.40;13.65;;;5.40;99.90;;;;;;5041238;28;20040;-79
2021/11/10 04:14:19;;;;;;;28.23;13.13;;;5.50;99.90;;;;;;5054823;28;20033;-79
2021/11/10 04:16:45;;;;;;;25.80;12.63;;;5.40;99.90;;;;;;5054635;28;20059;-80
2021/11/10 04:19:11;;;;;;;24.85;12.13;;;5.50;99.90;;;;;;5054432;28;20142;-79
2021/11/10 04:21:37;;;;;;;20.88;12.05;;;5.50;99.90;;;;;;5054365;28;20029;-82
2021/11/10 04:24:04;;;;;;;20.83;12.70;;;5.50;99.90;;;;;;5054785;28;20079;-81
2021/11/10 04:26:34;;;;;;;21.60;13.07;;;5.50;99.90;;;;;;5053616;28;20024;-80
2021/11/10 04:29:00;;;;;;;20.70;13.45;;;5.50;99.90;;;;;;5054492;28;20507;-80
2021/11/10 04:31:26;;;;;;;23.95;13.30;;;5.50;99.90;;;;;;5048165;28;20029;-80
2021/11/10 04:33:53;;;;;;;36.33;14.02;;;5.50;99.90;;;;;;5042335;28;20444;-80
2021/11/10 04:36:19;;;;;;;23.90;13.52;;;5.50;99.90;;;;;;5054640;28;20017;-81
2021/11/10 04:38:47;;;;;;;25.30;12.45;;;5.50;99.90;;;;;;5052733;28;20439;-81
2021/11/10 04:41:14;;;;;;;25.92;12.88;;;5.50;99.90;;;;;;5054225;28;20508;-80
2021/11/10 04:43:40;;;;;;;25.85;12.48;;;5.40;99.90;;;;;;5034459;28;20098;-81
2021/11/10 04:46:11;;;;;;;29.52;13.23;;;5.50;99.90;;;;;;5034628;28;20462;-81
2021/11/10 04:48:38;;;;;;;28.35;12.77;;;5.40;99.90;;;;;;5033952;28;20488;-81
2021/11/10 04:51:09;;;;;;;23.80;13.02;;;5.50;99.90;;;;;;5034921;28;20022;-81
2021/11/10 04:53:36;;;;;;;24.13;12.98;;;5.50;99.90;;;;;;5041686;28;20045;-81
2021/11/10 04:56:03;;;;;;;20.50;11.52;;;5.50;99.90;;;;;;5053015;28;20401;-81
2021/11/10 04:58:29;;;;;;;26.73;13.20;;;5.50;99.90;;;;;;5048451;28;20112;-82
2021/11/10 05:00:55;;;;;;;21.65;12.00;;;5.40;99.90;;;;;;5034420;28;20114;-81
2021/11/10 05:03:21;;;;;;;28.33;12.57;;;5.40;99.90;;;;;;5033594;28;20021;-81
2021/11/10 05:05:47;;;;;;;26.90;13.18;;;5.40;99.90;;;;;;5033743;28;20469;-81
2021/11/10 05:08:13;;;;;;;25.48;13.13;;;5.40;99.90;;;;;;5033959;28;20014;-81
2021/11/10 05:10:38;;;;;;;19.83;10.85;;;5.40;99.90;;;;;;5037829;28;20433;-81
2021/11/10 05:13:04;;;;;;;19.85;12.55;;;5.40;99.90;;;;;;5048195;28;20025;-81
2021/11/10 05:15:30;;;;;;;34.30;14.32;;;5.40;99.90;;;;;;5052521;28;20090;-81
2021/11/10 05:17:55;;;;;;;24.15;13.18;;;5.40;99.90;;;;;;5053459;28;20021;-81
2021/11/10 05:20:21;;;;;;;25.38;13.27;;;5.40;99.90;;;;;;5053789;28;20465;-81
2021/11/10 05:22:47;;;;;;;25.23;12.73;;;5.40;99.90;;;;;;5053713;28;20021;-81
2021/11/10 05:25:13;;;;;;;23.25;13.45;;;5.40;99.90;;;;;;5040031;28;20029;-80
2021/11/10 05:27:39;;;;;;;22.23;12.82;;;5.40;99.90;;;;;;5062916;28;20032;-81
2021/11/10 05:30:06;;;;;;;28.08;13.05;;;5.30;99.90;;;;;;5057891;28;20059;-81
2021/11/10 05:32:32;;;;;;;24.98;11.55;;;5.30;99.90;;;;;;5051113;28;20087;-81
2021/11/10 05:34:59;;;;;;;23.55;11.88;;;5.30;99.90;;;;;;5049056;28;20489;-80
2021/11/10 05:37:28;;;;;;;27.67;13.27;;;5.30;99.90;;;;;;5052932;28;20107;-80
2021/11/10 05:39:54;;;;;;;23.92;13.00;;;5.30;99.90;;;;;;5048957;28;20100;-78
2021/11/10 05:42:20;;;;;;;23.15;12.45;;;5.30;99.90;;;;;;5048234;28;20031;-80
2021/11/10 05:44:46;;;;;;;21.70;12.00;;;5.30;99.90;;;;;;5052849;28;20028;-80
2021/11/10 05:47:12;;;;;;;27.00;12.18;;;5.40;99.90;;;;;;5052414;28;20029;-80
2021/11/10 05:49:38;;;;;;;27.00;13.18;;;5.30;99.90;;;;;;5050912;28;20037;-80
2021/11/10 05:52:05;;;;;;;28.83;13.52;;;5.30;99.90;;;;;;5050704;28;20035;-79
2021/11/10 05:54:31;;;;;;;22.83;13.50;;;5.30;99.90;;;;;;5051051;28;20439;-80
2021/11/10 05:56:57;;;;;;;23.85;12.18;;;5.30;99.90;;;;;;5051241;28;20551;-80
2021/11/10 05:59:22;;;;;;;23.27;12.32;;;5.30;99.90;;;;;;5045892;28;20069;-80
2021/11/10 06:01:48;;;;;;;21.90;12.48;;;5.30;99.90;;;;;;5031361;28;20028;-80
2021/11/10 06:04:14;;;;;;;23.05;12.50;;;5.30;99.90;;;;;;5031205;28;20030;-80
2021/11/10 06:06:40;;;;;;;20.85;12.15;;;5.20;99.90;;;;;;5031875;28;20018;-80
2021/11/10 06:09:06;;;;;;;24.85;12.60;;;5.20;99.90;;;;;;5032631;28;20029;-80
2021/11/10 06:11:32;;;;;;;23.10;12.98;;;5.20;99.90;;;;;;5045745;28;20378;-81
2021/11/10 06:13:58;;;;;;;24.27;12.02;;;5.20;99.90;;;;;;5045269;28;20037;-80
2021/11/10 06:16:24;;;;;;;28.52;13.38;;;5.20;99.90;;;;;;5033052;28;20058;-80
2021/11/10 06:18:49;;;;;;;31.77;13.15;;;5.20;99.90;;;;;;5033153;28;20026;-80
2021/11/10 06:21:15;;;;;;;27.90;12.75;;;5.10;99.90;;;;;;5032110;28;20677;-80
2021/11/10 06:23:41;;;;;;;24.20;12.70;;;5.10;99.90;;;;;;5032889;28;20036;-80
2021/11/10 06:26:07;;;;;;;30.30;12.73;;;5.10;99.90;;;;;;5033176;28;20022;-80
2021/11/10 06:28:32;;;;;;;21.90;11.88;;;5.00;99.90;;;;;;5032412;28;20083;-80
2021/11/10 06:30:58;;;;;;;32.08;12.98;;;5.10;99.90;;;;;;5049528;28;20044;-80
2021/11/10 06:33:24;;;;;;;26.80;12.10;;;5.10;99.90;;;;;;5052592;28;20107;-80
2021/11/10 06:35:50;;;;;;;24.77;13.13;;;5.10;99.90;;;;;;5052638;28;20021;-81
2021/11/10 06:38:15;;;;;;;24.67;12.70;;;5.10;99.90;;;;;;5051324;28;20021;-81
2021/11/10 06:40:41;;;;;;;27.38;12.82;;;5.10;99.90;;;;;;5031025;28;20030;-80
2021/11/10 06:43:07;;;;;;;27.02;12.95;;;5.00;99.90;;;;;;5041733;28;20572;-81
2021/11/10 06:45:32;;;;;;;27.98;13.25;;;4.90;99.90;;;;;;5034818;28;20083;-81
2021/11/10 06:47:58;;;;;;;25.23;13.70;;;4.90;99.90;;;;;;5032913;28;20022;-81
2021/11/10 06:50:24;;;;;;;24.80;13.52;;;4.90;99.90;;;;;;5047796;28;20044;-81
2021/11/10 06:52:50;;;;;;;23.60;12.90;;;4.90;99.90;;;;;;5056502;28;20021;-81
2021/11/10 06:55:16;;;;;;;33.45;14.80;;;5.00;99.90;;;;;;5055147;28;20112;-81
2021/11/10 06:57:42;;;;;;;27.58;12.85;;;4.90;99.90;;;;;;5054505;28;20040;-81
2021/11/10 07:00:11;;;;;;;23.60;12.85;;;4.90;99.90;;;;;;5046621;28;20113;-81
2021/11/10 07:02:37;;;;;;;25.20;13.13;;;5.00;99.90;;;;;;5035583;28;20018;-80
2021/11/10 07:05:03;;;;;;;26.67;13.63;;;5.00;99.90;;;;;;5036000;28;20100;-82
2021/11/10 07:07:29;;;;;;;25.35;12.52;;;5.00;99.90;;;;;;5036409;28;20029;-81
2021/11/10 07:09:55;;;;;;;27.23;12.88;;;4.90;99.90;;;;;;5036282;28;20431;-81
2021/11/10 07:12:20;;;;;;;24.48;11.55;;;4.90;99.90;;;;;;5043044;28;20021;-81
2021/11/10 07:14:46;;;;;;;30.45;14.32;;;4.90;99.90;;;;;;5056135;28;20385;-81
2021/11/10 07:17:12;;;;;;;26.55;13.80;;;4.90;99.90;;;;;;5055892;28;20041;-81
2021/11/10 07:19:37;;;;;;;24.02;12.52;;;4.90;99.90;;;;;;5055933;28;20033;-81
2021/11/10 07:22:03;;;;;;;26.85;12.88;;;4.90;99.90;;;;;;5056113;28;20064;-81
2021/11/10 07:24:29;;;;;;;25.00;13.25;;;4.90;99.90;;;;;;5051826;28;20021;-81
2021/11/10 07:26:56;;;;;;;25.17;12.45;;;4.90;99.90;;;;;;5048455;28;20035;-78
2021/11/10 07:29:22;;;;;;;26.30;13.23;;;4.90;99.90;;;;;;5048071;28;20045;-79
2021/11/10 07:31:48;;;;;;;23.60;12.50;;;4.80;99.90;;;;;;5049977;28;20029;-78
2021/11/10 07:34:13;;;;;;;27.02;13.00;;;4.80;99.90;;;;;;5052501;28;20033;-78
2021/11/10 07:36:39;;;;;;;27.75;13.07;;;4.70;99.90;;;;;;5051557;28;20499;-78
2021/11/10 07:39:06;;;;;;;24.48;12.63;;;4.80;99.90;;;;;;5050335;28;20033;-80
2021/11/10 07:41:33;;;;;;;28.02;13.35;;;4.90;99.90;;;;;;5059941;28;20121;-80
2021/11/10 07:44:00;;;;;;;24.10;12.45;;;4.90;99.90;;;;;;5047836;28;20036;-79
2021/11/10 07:46:30;;;;;;;26.38;13.57;;;4.90;99.90;;;;;;5049762;28;20019;-79
2021/11/10 07:48:56;;;;;;;26.88;13.48;;;4.90;99.90;;;;;;5048293;28;20040;-77
2021/11/10 07:51:22;;;;;;;25.10;12.45;;;4.90;99.90;;;;;;5047216;28;20029;-78
2021/11/10 07:53:48;;;;;;;27.73;15.25;;;4.90;99.90;;;;;;5052464;28;20029;-77
2021/11/10 07:56:14;;;;;;;31.73;14.02;;;5.00;99.90;;;;;;5047411;28;20100;-80
2021/11/10 07:58:40;;;;;;;23.83;14.15;;;5.00;99.90;;;;;;5049708;28;20478;-79
2021/11/10 08:01:08;;;;;;;26.33;14.15;;;5.00;99.90;;;;;;5047519;28;20669;-80
2021/11/10 08:03:34;;;;;;;32.50;14.07;;;5.00;99.90;;;;;;5050176;28;20376;-81
2021/11/10 08:06:00;;;;;;;26.52;13.40;;;5.10;99.90;;;;;;5055727;28;20085;-78
2021/11/10 08:08:27;;;;;;;22.00;12.60;;;5.10;99.90;;;;;;5047268;28;20025;-80
2021/11/10 08:11:03;;;;;;;25.23;14.10;;;5.10;99.90;;;;;;5043722;28;20371;-78
2021/11/10 08:13:29;;;;;;;24.52;13.48;;;5.10;99.90;;;;;;5050409;28;20079;-79
2021/11/10 08:15:58;;;;;;;29.25;14.43;;;5.10;99.90;;;;;;5054781;28;20028;-79
2021/11/10 08:18:25;;;;;;;37.95;17.77;;;5.10;99.90;;;;;;5047998;28;20040;-78
2021/11/10 08:20:51;;;;;;;31.15;16.83;;;5.00;99.90;;;;;;5050254;28;20032;-78
2021/11/10 08:23:22;;;;;;;32.40;17.80;;;5.00;99.90;;;;;;5053634;28;20052;-77
2021/11/10 08:25:50;;;;;;;31.70;15.48;;;5.00;99.90;;;;;;5049168;28;20021;-80
2021/11/10 08:28:16;;;;;;;24.75;12.90;;;5.10;99.90;;;;;;5050221;28;20020;-80
2021/11/10 08:30:41;;;;;;;35.25;16.83;;;5.10;99.90;;;;;;5047798;28;20040;-81
2021/11/10 08:33:07;;;;;;;32.17;15.48;;;5.10;99.90;;;;;;5047702;28;20026;-80
2021/11/10 08:35:33;;;;;;;26.92;14.98;;;5.20;99.90;;;;;;5055517;28;20039;-79
2021/11/10 08:37:59;;;;;;;35.15;17.17;;;5.20;99.90;;;;;;5050781;28;20074;-80
2021/11/10 08:40:25;;;;;;;32.25;15.63;;;5.20;99.90;;;;;;5043768;28;20112;-79
2021/11/10 08:42:52;;;;;;;26.70;15.43;;;5.30;99.90;;;;;;5047937;28;20024;-80
2021/11/10 08:45:24;;;;;;;33.13;14.77;;;5.40;99.90;;;;;;5047958;28;20036;-79
2021/11/10 08:47:51;;;;;;;31.75;15.27;;;5.40;99.90;;;;;;5049803;28;20025;-79
2021/11/10 08:50:21;;;;;;;36.67;17.08;;;5.40;99.90;;;;;;5051701;28;20029;-79
2021/11/10 08:52:47;;;;;;;35.05;17.33;;;5.50;99.90;;;;;;5056845;28;20083;-78
2021/11/10 08:55:16;;;;;;;30.70;16.52;;;5.50;99.90;;;;;;5052731;28;20047;-78
2021/11/10 08:57:43;;;;;;;28.02;15.30;;;5.60;99.90;;;;;;5051269;28;20103;-77
2021/11/10 09:00:15;;;;;;;43.63;19.20;;;5.70;99.90;;;;;;5050808;28;20036;-78
2021/11/10 09:02:41;;;;;;;31.83;14.02;;;5.70;99.90;;;;;;5051043;28;20032;-78
2021/11/10 09:05:08;;;;;;;26.92;13.57;;;5.70;99.90;;;;;;5051209;28;20029;-78
2021/11/10 09:07:34;;;;;;;31.08;14.77;;;5.70;99.90;;;;;;5045164;28;20713;-78
2021/11/10 09:10:00;;;;;;;33.22;15.95;;;5.70;99.90;;;;;;5050265;28;20028;-78
2021/11/10 09:12:26;;;;;;;38.05;18.25;;;5.80;99.90;;;;;;5051153;28;20033;-78
2021/11/10 09:14:52;;;;;;;28.83;16.52;;;5.80;99.90;;;;;;5044878;28;20033;-77
2021/11/10 09:17:19;;;;;;;33.90;16.60;;;5.90;99.90;;;;;;5045014;28;20029;-77
2021/11/10 09:19:45;;;;;;;34.30;17.08;;;6.00;99.90;;;;;;5041804;28;20022;-76
2021/11/10 09:22:11;;;;;;;37.80;16.85;;;6.10;99.90;;;;;;5044075;28;20027;-76
2021/11/10 09:24:38;;;;;;;32.22;16.05;;;6.20;99.90;;;;;;5049936;28;20082;-76
2021/11/10 09:27:04;;;;;;;31.58;16.27;;;6.20;99.90;;;;;;5050207;28;20136;-76
2021/11/10 09:29:30;;;;;;;36.10;18.05;;;6.20;99.90;;;;;;5048175;28;20067;-76
2021/11/10 09:31:57;;;;;;;39.92;20.42;;;6.20;99.90;;;;;;5043631;28;20056;-76
2021/11/10 09:34:22;;;;;;;37.08;21.27;;;6.30;99.90;;;;;;5046937;28;20610;-76
2021/11/10 09:36:48;;;;;;;41.42;20.83;;;6.30;99.90;;;;;;5049141;28;20022;-76
2021/11/10 09:39:22;;;;;;;43.72;20.85;;;6.30;99.90;;;;;;5048604;28;20029;-76
2021/11/10 09:41:51;;;;;;;42.55;19.80;;;6.30;99.90;;;;;;5045465;28;20029;-76
2021/11/10 09:44:18;;;;;;;37.53;18.60;;;6.40;99.90;;;;;;5048331;28;20051;-76
2021/11/10 09:46:44;;;;;;;42.15;21.35;;;6.50;99.90;;;;;;5050089;28;20067;-76
2021/11/10 09:49:12;;;;;;;34.58;17.63;;;6.60;99.90;;;;;;5049263;28;20021;-76
2021/11/10 09:51:39;;;;;;;32.25;16.70;;;6.60;99.90;;;;;;5046421;28;20020;-77
2021/11/10 09:54:06;;;;;;;38.97;20.10;;;6.70;99.90;;;;;;5047341;28;20048;-76
2021/11/10 09:56:33;;;;;;;31.40;17.50;;;6.80;99.90;;;;;;5052608;28;20018;-76
2021/11/10 09:59:00;;;;;;;36.00;17.60;;;6.80;99.90;;;;;;5046923;28;20634;-77
2021/11/10 10:01:26;;;;;;;33.35;18.27;;;7.00;99.90;;;;;;5048559;28;20100;-77
2021/11/10 10:03:53;;;;;;;34.28;17.95;;;7.00;99.90;;;;;;5049072;28;20039;-77
2021/11/10 10:06:20;;;;;;;44.63;18.13;;;7.10;99.90;;;;;;5048881;28;20021;-77
2021/11/10 10:08:46;;;;;;;33.22;17.35;;;7.10;99.90;;;;;;5051294;28;20029;-76
2021/11/10 10:11:13;;;;;;;36.58;18.20;;;7.20;99.90;;;;;;5047414;28;20031;-76
2021/11/10 10:13:39;;;;;;;33.60;15.73;;;7.30;99.90;;;;;;5049262;28;20056;-77
2021/11/10 10:16:06;;;;;;;30.23;16.38;;;7.30;99.90;;;;;;5046075;28;20029;-77
2021/11/10 10:18:32;;;;;;;33.80;16.83;;;7.40;99.90;;;;;;5046545;28;20021;-77
2021/11/10 10:21:09;;;;;;;34.03;17.23;;;7.50;99.90;;;;;;5044370;28;20037;-77
2021/11/10 10:23:39;;;;;;;31.98;15.77;;;7.50;99.90;;;;;;5049140;28;20021;-77
2021/11/10 10:26:11;;;;;;;32.75;17.08;;;7.60;99.90;;;;;;5052213;28;20457;-77
2021/11/10 10:28:41;;;;;;;34.38;17.33;;;7.60;99.90;;;;;;5048820;28;20033;-77
2021/11/10 10:31:19;;;;;;;34.15;16.92;;;7.70;99.90;;;;;;5048324;28;20036;-77
2021/11/10 10:33:48;;;;;;;30.60;16.75;;;7.70;99.90;;;;;;5049418;28;20044;-77
2021/11/10 10:36:17;;;;;;;29.92;15.43;;;7.70;99.90;;;;;;5053174;28;20543;-79
2021/11/10 10:38:51;;;;;;;34.03;16.00;;;7.70;99.90;;;;;;5049723;28;20033;-80
2021/11/10 10:41:30;;;;;;;34.35;17.42;;;7.70;99.90;;;;;;5054145;28;20525;-79
2021/11/10 10:44:01;;;;;;;35.53;18.30;;;7.80;99.90;;;;;;5049013;28;20096;-79
2021/11/10 10:46:29;;;;;;;30.60;17.33;;;7.90;99.90;;;;;;5054165;28;20653;-79
2021/11/10 10:49:16;;;;;;;32.22;15.57;;;7.90;99.90;;;;;;5049189;28;20064;-79
2021/11/10 10:51:50;;;;;;;27.35;15.65;;;7.90;99.90;;;;;;5051960;28;20029;-78
2021/11/10 10:54:16;;;;;;;36.17;17.27;;;7.90;99.90;;;;;;5054918;28;20030;-78
2021/11/10 10:56:48;;;;;;;39.00;16.75;;;7.90;99.90;;;;;;5049358;28;20147;-78
2021/11/10 10:59:15;;;;;;;;;;;8.00;99.90;;;;;;5050588;28;20032;-77
2021/11/10 11:01:43;;;;;;;32.55;15.73;;;7.90;99.90;;;;;;5046423;28;19916;-78
2021/11/10 11:04:21;;;;;;;27.80;15.23;;;8.00;99.90;;;;;;5048380;28;20045;-78
2021/11/10 11:07:04;;;;;;;27.10;14.48;;;8.00;99.90;;;;;;5055082;28;20018;-78
2021/11/10 11:09:34;;;;;;;29.40;15.55;;;8.10;99.90;;;;;;5050143;28;20036;-78
2021/11/10 11:12:18;;;;;;;29.00;15.85;;;8.20;99.90;;;;;;5054295;28;20049;-78
2021/11/10 11:15:14;;;;;;;30.60;15.55;;;8.20;99.90;;;;;;5055666;28;20080;-78
2021/11/10 11:17:46;;;;;;;32.75;15.95;;;8.20;99.90;;;;;;5046599;28;20032;-78
2021/11/10 11:20:32;;;;;;;34.90;17.10;;;8.30;99.90;;;;;;5051995;28;20063;-79
2021/11/10 11:22:59;;;;;;;36.45;17.85;;;8.30;99.90;;;;;;5049564;28;20021;-78
2021/11/10 11:25:26;;;;;;;39.00;18.05;;;8.30;99.90;;;;;;5047005;28;20029;-78
2021/11/10 11:28:06;;;;;;;37.40;19.05;;;8.30;99.90;;;;;;5054659;28;20495;-79
2021/11/10 11:30:36;;;;;;;42.33;23.15;;;8.30;99.90;;;;;;5072389;28;20048;-80
2021/11/10 11:33:12;;;;;;;59.38;36.22;;;8.30;99.90;;;;;;5041535;28;20755;-78
2021/11/10 11:35:44;;;;;;;73.20;50.33;;;8.40;99.90;;;;;;5056506;28;20031;-80
2021/11/10 11:38:18;;;;;;;75.50;53.58;;;8.40;99.90;;;;;;5052033;28;20469;-80
2021/11/10 11:40:46;;;;;;;79.05;53.35;;;8.50;99.90;;;;;;5048301;28;20038;-81
2021/11/10 11:43:16;;;;;;;89.32;63.28;;;8.60;99.90;;;;;;5049591;28;20016;-84
2021/11/10 11:45:46;;;;;;;85.72;57.78;;;8.70;99.90;;;;;;5050492;28;21073;-79
2021/11/10 11:48:12;;;;;;;77.03;53.78;;;8.80;99.90;;;;;;5047133;28;20017;-80
2021/11/10 11:50:39;;;;;;;70.57;45.03;;;8.90;99.90;;;;;;5051597;28;20029;-80
2021/11/10 11:53:06;;;;;;;73.97;47.22;;;8.90;99.90;;;;;;5049464;28;20021;-79
2021/11/10 11:55:40;;;;;;;62.38;43.63;;;8.90;99.90;;;;;;5054952;28;20066;-80
2021/11/10 11:58:08;;;;;;;73.43;45.70;;;8.90;99.90;;;;;;5053007;28;20103;-80
2021/11/10 12:00:48;;;;;;;63.15;44.97;;;9.00;99.90;;;;;;5053806;28;20036;-80
2021/11/10 12:03:23;;;;;;;73.78;50.45;;;9.00;99.90;;;;;;5053202;28;20126;-80
2021/11/10 12:06:12;;;;;;;70.47;46.00;;;9.10;99.90;;;;;;5053379;28;20450;-82
2021/11/10 12:08:39;;;;;;;71.65;43.75;;;9.20;99.90;;;;;;5050083;28;20040;-79
2021/11/10 12:11:35;;;;;;;67.00;37.78;;;9.10;99.90;;;;;;5045500;28;20041;-80
2021/11/10 12:14:26;;;;;;;60.97;34.10;;;9.20;99.90;;;;;;5033488;28;20497;-80
2021/11/10 12:17:01;;;;;;;57.15;31.98;;;9.20;99.90;;;;;;5034823;28;20029;-80
2021/11/10 12:19:41;;;;;;;57.97;30.90;;;9.30;99.90;;;;;;5046125;28;20029;-81
2021/11/10 12:22:11;;;;;;;44.70;24.80;;;9.40;99.90;;;;;;5054135;28;20116;-80
2021/11/10 12:25:00;;;;;;;56.63;26.83;;;9.40;99.90;;;;;;5052639;28;20029;-81
2021/11/10 12:27:40;;;;;;;42.15;23.00;;;9.50;99.90;;;;;;5053045;28;20535;-81
2021/11/10 12:30:16;;;;;;;37.72;20.20;;;9.50;99.90;;;;;;5033021;28;20060;-80
2021/11/10 12:33:05;;;;;;;35.40;20.17;;;9.50;99.90;;;;;;5036126;28;20029;-80
2021/11/10 12:35:40;;;;;;;39.78;19.27;;;9.50;99.90;;;;;;5034560;28;20049;-80
2021/11/10 12:38:34;;;;;;;37.92;18.13;;;9.50;99.90;;;;;;5033180;28;20021;-81
2021/11/10 12:41:03;;;;;;;32.15;17.75;;;9.60;99.90;;;;;;5032873;28;20042;-80